createdAt,value
2023-01-11T00:00:08.025Z,1010.21
2023-01-11T00:00:17.457Z,1010.17
2023-01-11T00:00:36.231Z,1010.10
2023-01-11T00:00:45.635Z,1010.26
2023-01-11T00:00:55.034Z,1010.27
2023-01-11T00:01:04.422Z,1010.12
2023-01-11T00:01:13.839Z,1010.18
2023-01-11T00:01:23.250Z,1010.15
2023-01-11T00:01:32.659Z,1010.10
2023-01-11T00:01:42.088Z,1010.06
2023-01-11T00:01:51.737Z,1010.11
2023-01-11T00:02:01.069Z,1010.07
2023-01-11T00:02:10.568Z,1010.04
2023-01-11T00:02:20.031Z,1010.07
2023-01-11T00:02:29.367Z,1010.21
2023-01-11T00:02:38.822Z,1010.17
2023-01-11T00:02:48.128Z,1009.99
2023-01-11T00:02:57.579Z,1010.13
2023-01-11T00:03:16.455Z,1010.13
2023-01-11T00:03:25.860Z,1010.30
2023-01-11T00:03:35.332Z,1010.16
2023-01-11T00:03:44.759Z,1010.09
2023-01-11T00:03:54.181Z,1010.13
2023-01-11T00:04:03.614Z,1010.17
2023-01-11T00:04:13.079Z,1010.06
2023-01-11T00:04:22.496Z,1010.02
2023-01-11T00:04:31.934Z,1010.07
2023-01-11T00:04:41.337Z,1010.14
2023-01-11T00:04:50.892Z,1010.08
2023-01-11T00:05:00.255Z,1010.10
2023-01-11T00:05:09.615Z,1010.08
2023-01-11T00:05:18.916Z,1010.08
2023-01-11T00:05:28.519Z,1010.07
2023-01-11T00:05:37.744Z,1010.09
2023-01-11T00:05:56.541Z,1010.05
2023-01-11T00:06:05.919Z,1010.08
2023-01-11T00:06:15.341Z,1010.05
2023-01-11T00:06:24.775Z,1010.01
2023-01-11T00:06:34.192Z,1010.01
2023-01-11T00:06:43.589Z,1009.97
2023-01-11T00:06:53.016Z,1010.09
2023-01-11T00:07:02.339Z,1010.16
2023-01-11T00:07:11.797Z,1010.08
2023-01-11T00:07:21.264Z,1010.10
2023-01-11T00:07:30.617Z,1009.98
2023-01-11T00:07:40.018Z,1010.11
2023-01-11T00:07:49.434Z,1009.99
2023-01-11T00:07:58.884Z,1010.08
2023-01-11T00:08:08.336Z,1010.05
2023-01-11T00:08:17.761Z,1010.03
2023-01-11T00:08:36.582Z,1009.98
2023-01-11T00:08:45.971Z,1010.02
2023-01-11T00:08:55.401Z,1010.07
2023-01-11T00:09:04.866Z,1010.03
2023-01-11T00:09:14.357Z,1009.98
2023-01-11T00:09:23.753Z,1009.97
2023-01-11T00:09:33.156Z,1009.95
2023-01-11T00:09:42.576Z,1009.94
2023-01-11T00:09:51.969Z,1009.96
2023-01-11T00:10:01.413Z,1010.00
2023-01-11T00:10:10.859Z,1010.12
2023-01-11T00:10:20.408Z,1010.00
2023-01-11T00:10:29.815Z,1009.97
2023-01-11T00:10:39.232Z,1010.10
2023-01-11T00:10:48.637Z,1010.04
2023-01-11T00:10:58.470Z,1010.03
2023-01-11T00:11:07.881Z,1010.06
2023-01-11T00:11:26.674Z,1010.01
2023-01-11T00:11:36.091Z,1010.10
2023-01-11T00:11:45.479Z,1009.94
2023-01-11T00:11:54.888Z,1010.03
2023-01-11T00:12:04.389Z,1009.90
2023-01-11T00:12:13.846Z,1010.11
2023-01-11T00:12:23.239Z,1010.12
2023-01-11T00:12:32.799Z,1009.99
2023-01-11T00:12:42.191Z,1009.90
2023-01-11T00:12:51.647Z,1009.91
2023-01-11T00:13:01.074Z,1009.93
2023-01-11T00:13:10.463Z,1009.89
2023-01-11T00:13:19.859Z,1009.84
2023-01-11T00:13:29.256Z,1009.91
2023-01-11T00:13:38.667Z,1009.92
2023-01-11T00:13:48.139Z,1009.84
2023-01-11T00:13:57.542Z,1009.86
2023-01-11T00:14:16.337Z,1010.00
2023-01-11T00:14:25.749Z,1009.88
2023-01-11T00:14:35.157Z,1009.89
2023-01-11T00:14:44.560Z,1009.93
2023-01-11T00:14:53.964Z,1009.87
2023-01-11T00:15:03.484Z,1009.88
2023-01-11T00:15:12.892Z,1009.96
2023-01-11T00:15:22.279Z,1009.93
2023-01-11T00:15:31.680Z,1009.89
2023-01-11T00:15:41.139Z,1009.97
2023-01-11T00:15:50.564Z,1009.84
2023-01-11T00:15:59.907Z,1009.91
2023-01-11T00:16:09.357Z,1009.89
2023-01-11T00:16:18.747Z,1009.86
2023-01-11T00:16:28.184Z,1009.84
2023-01-11T00:16:37.526Z,1009.94
2023-01-11T00:16:56.326Z,1010.05
2023-01-11T00:17:05.713Z,1009.98
2023-01-11T00:17:15.154Z,1009.82
2023-01-11T00:17:24.571Z,1009.92
2023-01-11T00:17:33.965Z,1010.05
2023-01-11T00:17:43.373Z,1009.95
2023-01-11T00:17:52.780Z,1009.94
2023-01-11T00:18:02.176Z,1009.91
2023-01-11T00:18:11.581Z,1009.86
2023-01-11T00:18:20.968Z,1009.93
2023-01-11T00:18:30.364Z,1009.90
2023-01-11T00:18:39.793Z,1009.87
2023-01-11T00:18:49.219Z,1010.07
2023-01-11T00:18:58.624Z,1009.91
2023-01-11T00:19:08.041Z,1009.89
2023-01-11T00:19:17.499Z,1010.03
2023-01-11T00:19:36.332Z,1009.90
2023-01-11T00:19:45.752Z,1010.03
2023-01-11T00:19:55.172Z,1009.94
2023-01-11T00:20:04.614Z,1009.92
2023-01-11T00:20:14.055Z,1009.94
2023-01-11T00:20:23.452Z,1009.94
2023-01-11T00:20:32.862Z,1009.94
2023-01-11T00:20:42.279Z,1009.92
2023-01-11T00:20:51.696Z,1009.88
2023-01-11T00:21:01.109Z,1009.82
2023-01-11T00:21:10.505Z,1009.88
2023-01-11T00:21:19.944Z,1009.89
2023-01-11T00:21:29.354Z,1009.91
2023-01-11T00:21:38.796Z,1009.91
2023-01-11T00:21:48.207Z,1009.86
2023-01-11T00:21:57.624Z,1009.90
2023-01-11T00:22:16.592Z,1009.91
2023-01-11T00:22:26.002Z,1009.90
2023-01-11T00:22:35.413Z,1009.91
2023-01-11T00:22:44.832Z,1009.85
2023-01-11T00:22:54.238Z,1009.96
2023-01-11T00:23:03.642Z,1009.90
2023-01-11T00:23:13.064Z,1009.87
2023-01-11T00:23:22.472Z,1009.83
2023-01-11T00:23:31.868Z,1009.82
2023-01-11T00:23:41.442Z,1009.81
2023-01-11T00:23:50.832Z,1009.80
2023-01-11T00:24:00.251Z,1009.70
2023-01-11T00:24:09.640Z,1009.77
2023-01-11T00:24:19.071Z,1009.96
2023-01-11T00:24:28.523Z,1009.77
2023-01-11T00:24:37.914Z,1009.71
2023-01-11T00:24:56.725Z,1009.76
2023-01-11T00:25:06.138Z,1009.73
2023-01-11T00:25:15.687Z,1009.81
2023-01-11T00:25:25.326Z,1009.76
2023-01-11T00:25:34.735Z,1009.77
2023-01-11T00:25:44.120Z,1009.81
2023-01-11T00:25:53.522Z,1009.76
2023-01-11T00:26:02.909Z,1009.84
2023-01-11T00:26:12.308Z,1009.91
2023-01-11T00:26:21.710Z,1009.79
2023-01-11T00:26:31.135Z,1009.69
2023-01-11T00:26:40.509Z,1009.74
2023-01-11T00:26:49.924Z,1009.79
2023-01-11T00:26:59.327Z,1009.72
2023-01-11T00:27:08.795Z,1009.82
2023-01-11T00:27:18.449Z,1009.83
2023-01-11T00:27:27.857Z,1009.74
2023-01-11T00:27:46.672Z,1009.72
2023-01-11T00:27:56.089Z,1009.82
2023-01-11T00:28:05.543Z,1009.71
2023-01-11T00:28:14.937Z,1009.67
2023-01-11T00:28:24.340Z,1009.77
2023-01-11T00:28:33.787Z,1009.72
2023-01-11T00:28:43.188Z,1009.79
2023-01-11T00:28:52.579Z,1009.85
2023-01-11T00:29:01.998Z,1009.77
2023-01-11T00:29:11.432Z,1009.67
2023-01-11T00:29:20.857Z,1009.67
2023-01-11T00:29:30.253Z,1009.67
2023-01-11T00:29:39.667Z,1009.65
2023-01-11T00:29:49.065Z,1009.67
2023-01-11T00:29:58.502Z,1009.75
2023-01-11T00:30:07.906Z,1009.69
2023-01-11T00:30:17.326Z,1009.76
2023-01-11T00:30:36.166Z,1009.65
2023-01-11T00:30:45.563Z,1009.60
2023-01-11T00:30:55.000Z,1009.62
2023-01-11T00:31:04.461Z,1009.66
2023-01-11T00:31:13.834Z,1009.56
2023-01-11T00:31:23.276Z,1009.65
2023-01-11T00:31:32.664Z,1009.69
2023-01-11T00:31:42.178Z,1009.76
2023-01-11T00:31:51.511Z,1009.73
2023-01-11T00:32:00.928Z,1009.63
2023-01-11T00:32:10.339Z,1009.64
2023-01-11T00:32:19.745Z,1009.56
2023-01-11T00:32:29.158Z,1009.57
2023-01-11T00:32:38.586Z,1009.68
2023-01-11T00:32:48.001Z,1009.69
2023-01-11T00:32:57.418Z,1009.60
2023-01-11T00:33:16.231Z,1009.56
2023-01-11T00:33:25.642Z,1009.65
2023-01-11T00:33:35.108Z,1009.64
2023-01-11T00:33:44.728Z,1009.53
2023-01-11T00:33:54.154Z,1009.50
2023-01-11T00:34:03.581Z,1009.56
2023-01-11T00:34:13.001Z,1009.52
2023-01-11T00:34:22.424Z,1009.52
2023-01-11T00:34:31.818Z,1009.63
2023-01-11T00:34:41.216Z,1009.48
2023-01-11T00:34:50.628Z,1009.51
2023-01-11T00:35:00.053Z,1009.51
2023-01-11T00:35:09.495Z,1009.50
2023-01-11T00:35:18.912Z,1009.50
2023-01-11T00:35:28.338Z,1009.50
2023-01-11T00:35:37.741Z,1009.53
2023-01-11T00:35:56.583Z,1009.61
2023-01-11T00:36:06.003Z,1009.52
2023-01-11T00:36:15.397Z,1009.47
2023-01-11T00:36:24.821Z,1009.51
2023-01-11T00:36:34.251Z,1009.54
2023-01-11T00:36:43.661Z,1009.58
2023-01-11T00:36:53.080Z,1009.66
2023-01-11T00:37:02.503Z,1009.56
2023-01-11T00:37:11.931Z,1009.66
2023-01-11T00:37:21.344Z,1009.59
2023-01-11T00:37:30.761Z,1009.45
2023-01-11T00:37:40.155Z,1009.52
2023-01-11T00:37:49.585Z,1009.54
2023-01-11T00:37:58.973Z,1009.47
2023-01-11T00:38:08.399Z,1009.49
2023-01-11T00:38:17.773Z,1009.49
2023-01-11T00:38:36.579Z,1009.51
2023-01-11T00:38:46.005Z,1009.56
2023-01-11T00:38:55.513Z,1009.46
2023-01-11T00:39:04.836Z,1009.54
2023-01-11T00:39:14.207Z,1009.45
2023-01-11T00:39:23.614Z,1009.43
2023-01-11T00:39:33.048Z,1009.47
2023-01-11T00:39:42.433Z,1009.47
2023-01-11T00:39:51.851Z,1009.56
2023-01-11T00:40:01.280Z,1009.48
2023-01-11T00:40:10.685Z,1009.45
2023-01-11T00:40:20.160Z,1009.37
2023-01-11T00:40:29.569Z,1009.44
2023-01-11T00:40:38.979Z,1009.42
2023-01-11T00:40:48.426Z,1009.42
2023-01-11T00:40:57.855Z,1009.38
2023-01-11T00:41:16.666Z,1009.45
2023-01-11T00:41:26.112Z,1009.53
2023-01-11T00:41:35.520Z,1009.52
2023-01-11T00:41:44.941Z,1009.45
2023-01-11T00:41:54.334Z,1009.42
2023-01-11T00:42:03.746Z,1009.50
2023-01-11T00:42:17.219Z,1009.41
2023-01-11T00:42:26.637Z,1009.40
2023-01-11T00:42:36.045Z,1009.40
2023-01-11T00:42:45.476Z,1009.40
2023-01-11T00:42:54.883Z,1009.36
2023-01-11T00:43:04.288Z,1009.44
2023-01-11T00:43:13.696Z,1009.44
2023-01-11T00:43:23.095Z,1009.38
2023-01-11T00:43:32.509Z,1009.38
2023-01-11T00:43:41.935Z,1009.28
2023-01-11T00:43:51.374Z,1009.37
2023-01-11T00:44:00.802Z,1009.30
2023-01-11T00:44:10.195Z,1009.30
2023-01-11T00:44:19.609Z,1009.36
2023-01-11T00:44:29.039Z,1009.22
2023-01-11T00:44:38.438Z,1009.35
2023-01-11T00:44:47.854Z,1009.38
2023-01-11T00:45:06.668Z,1009.27
2023-01-11T00:45:16.089Z,1009.28
2023-01-11T00:45:25.461Z,1009.26
2023-01-11T00:45:34.874Z,1009.26
2023-01-11T00:45:44.302Z,1009.32
2023-01-11T00:45:53.784Z,1009.23
2023-01-11T00:46:03.236Z,1009.28
2023-01-11T00:46:12.575Z,1009.23
2023-01-11T00:46:21.971Z,1009.33
2023-01-11T00:46:31.433Z,1009.24
2023-01-11T00:46:40.796Z,1009.34
2023-01-11T00:46:50.248Z,1009.14
2023-01-11T00:46:59.689Z,1009.28
2023-01-11T00:47:09.116Z,1009.19
2023-01-11T00:47:18.520Z,1009.27
2023-01-11T00:47:27.927Z,1009.38
2023-01-11T00:47:37.352Z,1009.32
2023-01-11T00:47:56.179Z,1009.14
2023-01-11T00:48:05.566Z,1009.19
2023-01-11T00:48:15.040Z,1009.48
2023-01-11T00:48:24.449Z,1009.21
2023-01-11T00:48:33.878Z,1009.25
2023-01-11T00:48:43.290Z,1009.17
2023-01-11T00:48:52.717Z,1009.21
2023-01-11T00:49:02.137Z,1009.19
2023-01-11T00:49:11.579Z,1009.35
2023-01-11T00:49:20.977Z,1009.19
2023-01-11T00:49:30.395Z,1009.20
2023-01-11T00:49:39.788Z,1009.14
2023-01-11T00:49:49.181Z,1009.17
2023-01-11T00:49:58.581Z,1009.15
2023-01-11T00:50:07.978Z,1009.07
2023-01-11T00:50:17.368Z,1009.02
2023-01-11T00:50:36.201Z,1009.19
2023-01-11T00:50:45.575Z,1009.16
2023-01-11T00:50:54.986Z,1009.28
2023-01-11T00:51:04.378Z,1009.15
2023-01-11T00:51:13.769Z,1009.22
2023-01-11T00:51:23.156Z,1009.05
2023-01-11T00:51:32.557Z,1009.13
2023-01-11T00:51:41.936Z,1009.13
2023-01-11T00:51:51.362Z,1009.08
2023-01-11T00:52:00.821Z,1009.08
2023-01-11T00:52:10.281Z,1009.03
2023-01-11T00:52:19.728Z,1009.09
2023-01-11T00:52:29.133Z,1009.11
2023-01-11T00:52:38.565Z,1009.22
2023-01-11T00:52:47.993Z,1009.16
2023-01-11T00:52:57.423Z,1009.09
2023-01-11T00:53:16.259Z,1009.20
2023-01-11T00:53:25.669Z,1009.10
2023-01-11T00:53:35.084Z,1009.09
2023-01-11T00:53:44.570Z,1009.09
2023-01-11T00:53:53.970Z,1008.99
2023-01-11T00:54:03.386Z,1008.98
2023-01-11T00:54:12.789Z,1008.98
2023-01-11T00:54:22.217Z,1009.03
2023-01-11T00:54:31.629Z,1009.15
2023-01-11T00:54:41.041Z,1008.96
2023-01-11T00:54:50.438Z,1009.08
2023-01-11T00:54:59.831Z,1009.11
2023-01-11T00:55:09.243Z,1008.98
2023-01-11T00:55:18.655Z,1009.02
2023-01-11T00:55:28.070Z,1009.05
2023-01-11T00:55:37.441Z,1009.01
2023-01-11T00:55:56.284Z,1009.01
2023-01-11T00:56:05.694Z,1008.99
2023-01-11T00:56:15.092Z,1009.05
2023-01-11T00:56:24.506Z,1009.09
2023-01-11T00:56:33.904Z,1009.01
2023-01-11T00:56:43.284Z,1009.11
2023-01-11T00:56:52.739Z,1009.20
2023-01-11T00:57:02.121Z,1008.94
2023-01-11T00:57:11.546Z,1009.22
2023-01-11T00:57:20.941Z,1009.00
2023-01-11T00:57:30.353Z,1009.05
2023-01-11T00:57:39.772Z,1008.86
2023-01-11T00:57:49.179Z,1008.94
2023-01-11T00:57:58.612Z,1008.88
2023-01-11T00:58:08.012Z,1009.00
2023-01-11T00:58:17.428Z,1008.89
2023-01-11T00:58:36.262Z,1008.85
2023-01-11T00:58:45.655Z,1008.95
2023-01-11T00:58:55.078Z,1008.96
2023-01-11T00:59:04.500Z,1008.96
2023-01-11T00:59:13.941Z,1008.87
2023-01-11T00:59:23.351Z,1008.96
2023-01-11T00:59:32.743Z,1008.97
2023-01-11T00:59:42.135Z,1009.13
2023-01-11T00:59:51.555Z,1009.08
2023-01-11T01:00:00.960Z,1008.91
2023-01-11T01:00:10.338Z,1008.92
2023-01-11T01:00:19.733Z,1008.78
2023-01-11T01:00:29.211Z,1008.88
2023-01-11T01:00:38.563Z,1008.82
2023-01-11T01:00:47.979Z,1008.90
2023-01-11T01:00:57.387Z,1008.99
2023-01-11T01:01:16.201Z,1008.93
2023-01-11T01:01:25.687Z,1008.77
2023-01-11T01:01:35.186Z,1008.83
2023-01-11T01:01:44.618Z,1008.90
2023-01-11T01:01:53.864Z,1008.86
2023-01-11T01:02:03.260Z,1008.88
2023-01-11T01:02:12.695Z,1008.84
2023-01-11T01:02:22.118Z,1008.92
2023-01-11T01:02:31.568Z,1008.82
2023-01-11T01:02:40.925Z,1008.86
2023-01-11T01:02:50.400Z,1008.93
2023-01-11T01:02:59.724Z,1008.96
2023-01-11T01:03:09.095Z,1008.84
2023-01-11T01:03:18.513Z,1008.77
2023-01-11T01:03:27.938Z,1008.83
2023-01-11T01:03:37.331Z,1008.83
2023-01-11T01:03:56.156Z,1008.88
2023-01-11T01:04:05.542Z,1008.78
2023-01-11T01:04:14.968Z,1008.82
2023-01-11T01:04:24.403Z,1008.88
2023-01-11T01:04:33.829Z,1008.92
2023-01-11T01:04:43.216Z,1008.85
2023-01-11T01:04:52.624Z,1008.82
2023-01-11T01:05:02.037Z,1009.04
2023-01-11T01:05:11.489Z,1008.80
2023-01-11T01:05:20.919Z,1008.78
2023-01-11T01:05:30.319Z,1008.87
2023-01-11T01:05:39.708Z,1008.76
2023-01-11T01:05:49.109Z,1008.85
2023-01-11T01:05:58.512Z,1008.85
2023-01-11T01:06:07.944Z,1008.79
2023-01-11T01:06:17.343Z,1008.87
2023-01-11T01:06:36.179Z,1008.79
2023-01-11T01:06:45.666Z,1008.72
2023-01-11T01:06:55.120Z,1008.84
2023-01-11T01:07:04.382Z,1008.70
2023-01-11T01:07:13.779Z,1008.70
2023-01-11T01:07:23.206Z,1008.74
2023-01-11T01:07:32.622Z,1008.82
2023-01-11T01:07:42.036Z,1008.86
2023-01-11T01:07:51.455Z,1008.96
2023-01-11T01:08:00.832Z,1008.78
2023-01-11T01:08:10.246Z,1008.70
2023-01-11T01:08:19.610Z,1008.78
2023-01-11T01:08:29.041Z,1008.75
2023-01-11T01:08:38.465Z,1008.72
2023-01-11T01:08:47.841Z,1008.94
2023-01-11T01:09:06.672Z,1008.84
2023-01-11T01:09:16.096Z,1008.73
2023-01-11T01:09:25.488Z,1008.78
2023-01-11T01:09:34.904Z,1008.87
2023-01-11T01:09:44.295Z,1008.77
2023-01-11T01:09:53.682Z,1008.66
2023-01-11T01:10:03.085Z,1008.74
2023-01-11T01:10:12.488Z,1008.83
2023-01-11T01:10:21.897Z,1008.58
2023-01-11T01:10:31.370Z,1008.77
2023-01-11T01:10:40.755Z,1008.80
2023-01-11T01:10:50.161Z,1008.75
2023-01-11T01:10:59.569Z,1008.81
2023-01-11T01:11:08.976Z,1008.65
2023-01-11T01:11:18.375Z,1008.64
2023-01-11T01:11:27.797Z,1008.71
2023-01-11T01:11:46.601Z,1008.67
2023-01-11T01:11:56.009Z,1008.68
2023-01-11T01:12:05.422Z,1008.68
2023-01-11T01:12:14.824Z,1008.79
2023-01-11T01:12:24.282Z,1008.71
2023-01-11T01:12:33.688Z,1008.76
2023-01-11T01:12:43.091Z,1008.65
2023-01-11T01:12:52.519Z,1008.64
2023-01-11T01:13:01.907Z,1008.70
2023-01-11T01:13:11.352Z,1008.90
2023-01-11T01:13:20.753Z,1008.59
2023-01-11T01:13:30.172Z,1008.79
2023-01-11T01:13:39.580Z,1008.73
2023-01-11T01:13:48.977Z,1008.79
2023-01-11T01:13:58.378Z,1008.70
2023-01-11T01:14:07.780Z,1008.62
2023-01-11T01:14:26.686Z,1008.74
2023-01-11T01:14:35.995Z,1008.61
2023-01-11T01:14:45.419Z,1008.57
2023-01-11T01:14:54.796Z,1008.72
2023-01-11T01:15:04.186Z,1008.72
2023-01-11T01:15:13.595Z,1008.58
2023-01-11T01:15:22.987Z,1008.65
2023-01-11T01:15:32.390Z,1008.59
2023-01-11T01:15:41.829Z,1008.62
2023-01-11T01:15:51.243Z,1008.67
2023-01-11T01:16:00.658Z,1008.55
2023-01-11T01:16:10.111Z,1008.73
2023-01-11T01:16:19.483Z,1008.69
2023-01-11T01:16:28.829Z,1008.59
2023-01-11T01:16:38.250Z,1008.56
2023-01-11T01:16:47.667Z,1008.63
2023-01-11T01:17:06.440Z,1008.58
2023-01-11T01:17:15.842Z,1008.60
2023-01-11T01:17:25.309Z,1008.63
2023-01-11T01:17:34.764Z,1008.58
2023-01-11T01:17:44.160Z,1008.52
2023-01-11T01:17:53.566Z,1008.53
2023-01-11T01:18:02.988Z,1008.68
2023-01-11T01:18:12.406Z,1008.58
2023-01-11T01:18:21.840Z,1008.53
2023-01-11T01:18:31.235Z,1008.58
2023-01-11T01:18:40.650Z,1008.55
2023-01-11T01:18:50.038Z,1008.51
2023-01-11T01:18:59.490Z,1008.80
2023-01-11T01:19:08.897Z,1008.63
2023-01-11T01:19:18.441Z,1008.47
2023-01-11T01:19:27.933Z,1008.65
2023-01-11T01:19:46.670Z,1008.51
2023-01-11T01:19:56.079Z,1008.58
2023-01-11T01:20:05.510Z,1008.56
2023-01-11T01:20:14.902Z,1008.51
2023-01-11T01:20:24.297Z,1008.44
2023-01-11T01:20:33.718Z,1008.62
2023-01-11T01:20:43.153Z,1008.52
2023-01-11T01:20:52.531Z,1008.54
2023-01-11T01:21:01.964Z,1008.51
2023-01-11T01:21:11.404Z,1008.47
2023-01-11T01:21:20.824Z,1008.44
2023-01-11T01:21:30.279Z,1008.92
2023-01-11T01:21:39.745Z,1008.57
2023-01-11T01:21:49.164Z,1008.64
2023-01-11T01:21:58.568Z,1008.54
2023-01-11T01:22:07.960Z,1008.71
2023-01-11T01:22:17.367Z,1008.63
2023-01-11T01:22:36.210Z,1008.53
2023-01-11T01:22:45.631Z,1008.49
2023-01-11T01:22:55.042Z,1008.50
2023-01-11T01:23:04.447Z,1008.59
2023-01-11T01:23:13.874Z,1008.58
2023-01-11T01:23:23.275Z,1008.51
2023-01-11T01:23:32.665Z,1008.54
2023-01-11T01:23:42.070Z,1008.54
2023-01-11T01:23:51.460Z,1008.56
2023-01-11T01:24:00.907Z,1008.63
2023-01-11T01:24:10.263Z,1008.42
2023-01-11T01:24:19.662Z,1008.59
2023-01-11T01:24:29.087Z,1008.61
2023-01-11T01:24:38.508Z,1008.51
2023-01-11T01:24:47.985Z,1008.65
2023-01-11T01:25:06.712Z,1008.75
2023-01-11T01:25:16.134Z,1008.59
2023-01-11T01:25:25.551Z,1008.57
2023-01-11T01:25:34.984Z,1008.57
2023-01-11T01:25:44.394Z,1008.77
2023-01-11T01:25:53.794Z,1008.44
2023-01-11T01:26:03.189Z,1008.50
2023-01-11T01:26:12.568Z,1008.59
2023-01-11T01:26:21.988Z,1008.49
2023-01-11T01:26:31.431Z,1008.55
2023-01-11T01:26:40.825Z,1008.60
2023-01-11T01:26:50.247Z,1008.62
2023-01-11T01:26:59.685Z,1008.71
2023-01-11T01:27:09.078Z,1008.50
2023-01-11T01:27:18.474Z,1008.55
2023-01-11T01:27:27.890Z,1008.55
2023-01-11T01:27:46.675Z,1008.54
2023-01-11T01:27:56.101Z,1008.66
2023-01-11T01:28:05.513Z,1008.51
2023-01-11T01:28:14.927Z,1008.63
2023-01-11T01:28:24.357Z,1008.50
2023-01-11T01:28:33.764Z,1008.55
2023-01-11T01:28:43.198Z,1008.43
2023-01-11T01:28:52.623Z,1008.57
2023-01-11T01:29:02.010Z,1008.51
2023-01-11T01:29:11.533Z,1008.47
2023-01-11T01:29:20.951Z,1008.45
2023-01-11T01:29:30.343Z,1008.43
2023-01-11T01:29:39.737Z,1008.55
2023-01-11T01:29:49.209Z,1008.49
2023-01-11T01:29:58.619Z,1008.50
2023-01-11T01:30:08.060Z,1008.63
2023-01-11T01:30:17.426Z,1008.59
2023-01-11T01:30:36.210Z,1008.53
2023-01-11T01:30:45.603Z,1008.49
2023-01-11T01:30:55.021Z,1008.63
2023-01-11T01:31:04.466Z,1008.45
2023-01-11T01:31:13.841Z,1008.62
2023-01-11T01:31:23.325Z,1008.47
2023-01-11T01:31:32.773Z,1008.51
2023-01-11T01:31:42.070Z,1008.46
2023-01-11T01:31:51.473Z,1008.44
2023-01-11T01:32:00.849Z,1008.47
2023-01-11T01:32:10.268Z,1008.39
2023-01-11T01:32:19.663Z,1008.50
2023-01-11T01:32:29.097Z,1008.46
2023-01-11T01:32:38.548Z,1008.36
2023-01-11T01:32:47.934Z,1008.38
2023-01-11T01:32:57.331Z,1008.45
2023-01-11T01:33:16.140Z,1008.42
2023-01-11T01:33:25.535Z,1008.44
2023-01-11T01:33:34.955Z,1008.40
2023-01-11T01:33:44.325Z,1008.45
2023-01-11T01:33:53.754Z,1008.37
2023-01-11T01:34:03.173Z,1008.39
2023-01-11T01:34:12.585Z,1008.48
2023-01-11T01:34:21.971Z,1008.48
2023-01-11T01:34:31.431Z,1008.46
2023-01-11T01:34:40.846Z,1008.32
2023-01-11T01:34:50.261Z,1008.40
2023-01-11T01:34:59.672Z,1008.23
2023-01-11T01:35:09.083Z,1008.40
2023-01-11T01:35:18.484Z,1008.34
2023-01-11T01:35:27.891Z,1008.38
2023-01-11T01:35:37.339Z,1008.41
2023-01-11T01:35:56.163Z,1008.29
2023-01-11T01:36:05.568Z,1008.40
2023-01-11T01:36:14.957Z,1008.34
2023-01-11T01:36:24.351Z,1008.34
2023-01-11T01:36:33.767Z,1008.36
2023-01-11T01:36:43.182Z,1008.54
2023-01-11T01:36:52.624Z,1008.47
2023-01-11T01:37:02.018Z,1008.33
2023-01-11T01:37:11.411Z,1008.37
2023-01-11T01:37:20.907Z,1008.36
2023-01-11T01:37:34.195Z,1008.29
2023-01-11T01:37:43.596Z,1008.26
2023-01-11T01:37:53.010Z,1008.24
2023-01-11T01:38:02.407Z,1008.26
2023-01-11T01:38:11.797Z,1008.41
2023-01-11T01:38:21.185Z,1008.25
2023-01-11T01:38:30.590Z,1008.21
2023-01-11T01:38:39.971Z,1008.24
2023-01-11T01:38:49.367Z,1008.19
2023-01-11T01:38:58.797Z,1008.19
2023-01-11T01:39:08.193Z,1008.27
2023-01-11T01:39:17.600Z,1008.31
2023-01-11T01:39:36.406Z,1008.25
2023-01-11T01:39:45.801Z,1008.28
2023-01-11T01:39:55.225Z,1008.21
2023-01-11T01:40:04.630Z,1008.33
2023-01-11T01:40:14.030Z,1008.25
2023-01-11T01:40:23.447Z,1008.55
2023-01-11T01:40:32.857Z,1008.27
2023-01-11T01:40:42.300Z,1008.24
2023-01-11T01:40:51.674Z,1008.08
2023-01-11T01:41:01.131Z,1008.30
2023-01-11T01:41:10.547Z,1008.33
2023-01-11T01:41:19.961Z,1008.21
2023-01-11T01:41:29.399Z,1008.19
2023-01-11T01:41:38.810Z,1008.21
2023-01-11T01:41:48.223Z,1008.18
2023-01-11T01:41:57.641Z,1008.20
2023-01-11T01:42:16.404Z,1008.35
2023-01-11T01:42:25.826Z,1008.17
2023-01-11T01:42:35.235Z,1008.10
2023-01-11T01:42:44.702Z,1008.24
2023-01-11T01:42:54.105Z,1008.11
2023-01-11T01:43:03.509Z,1008.25
2023-01-11T01:43:12.912Z,1008.15
2023-01-11T01:43:22.315Z,1008.18
2023-01-11T01:43:31.719Z,1008.25
2023-01-11T01:43:41.129Z,1008.19
2023-01-11T01:43:50.621Z,1008.21
2023-01-11T01:43:59.987Z,1008.14
2023-01-11T01:44:09.376Z,1008.26
2023-01-11T01:44:18.851Z,1008.14
2023-01-11T01:44:28.261Z,1008.27
2023-01-11T01:44:37.667Z,1008.11
2023-01-11T01:44:56.527Z,1008.28
2023-01-11T01:45:05.926Z,1008.25
2023-01-11T01:45:15.357Z,1008.11
2023-01-11T01:45:24.809Z,1008.12
2023-01-11T01:45:34.165Z,1008.17
2023-01-11T01:45:43.583Z,1008.43
2023-01-11T01:45:52.977Z,1008.20
2023-01-11T01:46:02.431Z,1008.17
2023-01-11T01:46:11.832Z,1008.17
2023-01-11T01:46:21.337Z,1008.10
2023-01-11T01:46:30.712Z,1008.09
2023-01-11T01:46:40.080Z,1008.23
2023-01-11T01:46:49.462Z,1008.11
2023-01-11T01:46:58.929Z,1008.11
2023-01-11T01:47:08.309Z,1008.17
2023-01-11T01:47:17.705Z,1008.13
2023-01-11T01:47:36.524Z,1008.07
2023-01-11T01:47:45.912Z,1008.07
2023-01-11T01:47:55.304Z,1008.16
2023-01-11T01:48:04.694Z,1008.11
2023-01-11T01:48:14.095Z,1008.11
2023-01-11T01:48:23.517Z,1008.15
2023-01-11T01:48:32.930Z,1008.25
2023-01-11T01:48:42.341Z,1008.33
2023-01-11T01:48:51.768Z,1008.24
2023-01-11T01:49:01.161Z,1008.22
2023-01-11T01:49:10.538Z,1008.16
2023-01-11T01:49:19.936Z,1008.05
2023-01-11T01:49:29.346Z,1008.17
2023-01-11T01:49:38.731Z,1008.05
2023-01-11T01:49:48.159Z,1008.19
2023-01-11T01:49:57.551Z,1008.03
2023-01-11T01:50:16.400Z,1007.99
2023-01-11T01:50:25.809Z,1008.14
2023-01-11T01:50:35.229Z,1008.27
2023-01-11T01:50:44.643Z,1008.07
2023-01-11T01:50:54.046Z,1008.06
2023-01-11T01:51:03.495Z,1008.14
2023-01-11T01:51:12.873Z,1008.16
2023-01-11T01:51:22.351Z,1008.08
2023-01-11T01:51:31.750Z,1008.07
2023-01-11T01:51:41.146Z,1008.08
2023-01-11T01:51:50.575Z,1008.02
2023-01-11T01:51:59.947Z,1008.03
2023-01-11T01:52:09.352Z,1008.00
2023-01-11T01:52:18.759Z,1008.08
2023-01-11T01:52:28.177Z,1008.09
2023-01-11T01:52:37.587Z,1008.00
2023-01-11T01:52:56.368Z,1008.14
2023-01-11T01:53:05.764Z,1008.08
2023-01-11T01:53:15.189Z,1008.09
2023-01-11T01:53:24.622Z,1008.05
2023-01-11T01:53:34.050Z,1008.20
2023-01-11T01:53:43.577Z,1008.05
2023-01-11T01:53:52.968Z,1008.10
2023-01-11T01:54:02.380Z,1007.98
2023-01-11T01:54:11.791Z,1008.10
2023-01-11T01:54:21.178Z,1008.12
2023-01-11T01:54:30.582Z,1008.11
2023-01-11T01:54:40.071Z,1008.06
2023-01-11T01:54:49.505Z,1008.15
2023-01-11T01:54:58.945Z,1008.13
2023-01-11T01:55:08.353Z,1008.08
2023-01-11T01:55:17.756Z,1008.30
2023-01-11T01:55:36.552Z,1008.08
2023-01-11T01:55:45.983Z,1008.03
2023-01-11T01:55:55.352Z,1008.17
2023-01-11T01:56:04.752Z,1008.08
2023-01-11T01:56:14.191Z,1008.04
2023-01-11T01:56:23.603Z,1008.12
2023-01-11T01:56:33.020Z,1008.01
2023-01-11T01:56:42.423Z,1007.97
2023-01-11T01:56:51.808Z,1007.93
2023-01-11T01:57:01.229Z,1008.03
2023-01-11T01:57:10.632Z,1008.05
2023-01-11T01:57:20.025Z,1008.09
2023-01-11T01:57:29.471Z,1007.92
2023-01-11T01:57:38.876Z,1008.00
2023-01-11T01:57:48.296Z,1008.10
2023-01-11T01:57:57.702Z,1008.12
2023-01-11T01:58:16.519Z,1007.85
2023-01-11T01:58:25.918Z,1007.93
2023-01-11T01:58:35.367Z,1008.19
2023-01-11T01:58:44.801Z,1007.86
2023-01-11T01:58:54.209Z,1007.87
2023-01-11T01:59:03.605Z,1007.91
2023-01-11T01:59:13.024Z,1007.98
2023-01-11T01:59:22.462Z,1007.95
2023-01-11T01:59:31.866Z,1007.97
2023-01-11T01:59:41.296Z,1007.91
2023-01-11T01:59:50.716Z,1007.92
2023-01-11T02:00:00.124Z,1008.41
2023-01-11T02:00:09.550Z,1007.88
2023-01-11T02:00:18.970Z,1007.84
2023-01-11T02:00:28.416Z,1008.09
2023-01-11T02:00:37.803Z,1007.97
2023-01-11T02:00:56.623Z,1007.93
2023-01-11T02:01:06.065Z,1007.97